Skip Navigation LinksHome page > Weather > Current weather Skip Navigation Links

Current Weather

Ronald Reagan Washington National, Washington

For information only: do not use for flight planning or navigation.
Latest weather
Observation time Wednesday, March 29, 2017 2:52 AM EDT
Local time Wednesday, March 29, 2017 3:11 AM EDT
Flight conditions Marginal Visual Meteorological Conditions
Winds
Wind direction North-Northwest (330°)
Wind speed 8 mph
Visibility 10 mi.
Sky condition
Ceiling 2,900 ft. broken clouds
Cloud layer few clouds 2,200 ft.
Cloud layer broken clouds 2,900 ft.
Cloud layer overcast 3,500 ft.
Temperature 59°F
Dewpoint 56°F
Altimeter 29.99 in.Hg
Precipitation
Rain began 2:25 AM
Rain ended 2:46 AM
Precipitation last hour trace
Derived measurements
Relative humidity 90%
Density altitude 149 ft.
Sea-level pressure 29.98 in.Hg
Remarks
Automated weather observing station with precipitation discriminator.
METAR KDCA 290652Z 33007KT 10SM FEW022 BKN029 OVC035 15/13 A2999 RMK AO2 RAB25E46 SLP154 P0000 T01500133

Settings

Location code

InnerDrive.Weather 4.0.6144.1 Release CLR 4.0.30319.34209
Copyright ©2015 Inner Drive Technology. All rights reserved. Portions Copyright ©1986-2015 David Braverman.

Find weather

Site navigation


Skip Navigation Links

Place info

Page info

PayPal - The safer, easier way to pay online!

Return home.

Copyright ©2017 Inner Drive Technology. Purveyors of fine, hand-crafted computer software. Page printed 2017-03-29T07:11:50 UTC.